DNMM/LOS METAR and TAF weather

Enter ICAO airport designator
Station Type Date Time Source
DNMM METAR 2022/01/25 05:00 UTC NOAA

DNMM 250500Z VRB02KT 5000 BR NSC 25/24 Q1010 NOSIG


Station Type Date Time Source
DNMM Decoded METAR 2022/01/25 05:00 UTC NOAA

Lagos / Ikeja, Nigeria (DNMM) 06-35N 003-20E 38M
Jan 25, 2022 - 12:00 AM EST / 2022.01.25 0500 UTC
Wind: Variable at 2 MPH (2 KT):0
Visibility: 3 mile(s):0
Weather: mist
Temperature: 77 F (25 C)
Dew Point: 75 F (24 C)
Relative Humidity: 94%
Pressure (altimeter): 29.83 in. Hg (1010 hPa)
ob: DNMM 250500Z VRB02KT 5000 BR NSC 25/24 Q1010 NOSIG
cycle: 5

Station Type Date Time Source
DNMM TAF 2022/01/25 06:24 UTC NOAA

TAF TAF DNMM 250500Z 2506/2612 VRB02KT 5000 HZ FEW010
TEMPO 2506/2509 3000 BR
BECMG 2509/2511 06010KT
TEMPO 6000 NSW
BECMG 2518/2520 VRB02KT 6000 NSW
TEMPO 2605/2609 3000 HZ

Example: see airport list